createdAt,value
2023-01-21T00:01:10.819Z,20.45
2023-01-21T00:03:38.483Z,14.57
2023-01-21T00:06:06.516Z,15.70
2023-01-21T00:08:34.749Z,16.15
2023-01-21T00:11:09.980Z,16.48
2023-01-21T00:13:37.448Z,17.83
2023-01-21T00:16:05.274Z,18.70
2023-01-21T00:18:33.669Z,16.52
2023-01-21T00:21:01.037Z,14.90
2023-01-21T00:23:28.700Z,13.52
2023-01-21T00:26:00.499Z,15.70
2023-01-21T00:28:29.566Z,17.48
2023-01-21T00:31:01.272Z,12.52
2023-01-21T00:33:30.094Z,14.93
2023-01-21T00:36:08.807Z,14.32
2023-01-21T00:38:36.601Z,16.42
2023-01-21T00:41:06.219Z,17.92
2023-01-21T00:43:34.383Z,12.65
2023-01-21T00:46:01.577Z,13.90
2023-01-21T00:48:29.053Z,12.43
2023-01-21T00:51:00.536Z,11.18
2023-01-21T00:53:29.201Z,12.48
2023-01-21T00:56:04.222Z,11.95
2023-01-21T00:58:31.983Z,13.63
2023-01-21T01:01:04.751Z,11.90
2023-01-21T01:03:32.765Z,13.38
2023-01-21T01:06:11.562Z,9.90
2023-01-21T01:08:39.038Z,9.45
2023-01-21T01:11:06.372Z,10.90
2023-01-21T01:13:35.691Z,10.75
2023-01-21T01:16:03.568Z,11.60
2023-01-21T01:18:33.797Z,11.18
2023-01-21T01:21:01.824Z,7.32
2023-01-21T01:23:29.612Z,9.52
2023-01-21T01:26:05.824Z,9.05
2023-01-21T01:28:33.953Z,9.43
2023-01-21T01:31:03.890Z,7.68
2023-01-21T01:33:31.656Z,8.07
2023-01-21T01:36:03.089Z,8.10
2023-01-21T01:38:30.966Z,6.97
2023-01-21T01:40:58.058Z,8.77
2023-01-21T01:44:00.636Z,8.27
2023-01-21T01:46:31.088Z,7.20
2023-01-21T01:49:16.992Z,6.68
2023-01-21T01:51:44.076Z,7.03
2023-01-21T01:54:14.941Z,6.57
2023-01-21T01:56:45.270Z,7.80
2023-01-21T01:59:13.077Z,7.53
2023-01-21T02:01:40.186Z,7.18
2023-01-21T02:04:13.359Z,8.40
2023-01-21T02:06:42.839Z,6.65
2023-01-21T02:09:10.128Z,5.25
2023-01-21T02:11:37.429Z,6.30
2023-01-21T02:14:05.794Z,7.85
2023-01-21T02:16:47.441Z,6.15
2023-01-21T02:19:17.943Z,5.53
2023-01-21T02:22:03.964Z,7.47
2023-01-21T02:24:50.069Z,5.70
2023-01-21T02:27:30.188Z,4.90
2023-01-21T02:30:10.384Z,6.03
2023-01-21T02:33:11.218Z,6.15
2023-01-21T02:36:12.133Z,6.82
2023-01-21T02:38:47.867Z,5.70
2023-01-21T02:41:34.225Z,5.77
2023-01-21T02:44:17.442Z,5.40
2023-01-21T02:46:47.202Z,6.03
2023-01-21T02:49:38.324Z,6.18
2023-01-21T02:52:05.941Z,6.97
2023-01-21T02:54:38.871Z,6.07
2023-01-21T02:57:16.999Z,6.50
2023-01-21T02:59:49.837Z,7.00
2023-01-21T03:02:32.217Z,7.10
2023-01-21T03:05:19.925Z,6.68
2023-01-21T03:07:53.237Z,4.75
2023-01-21T03:10:43.410Z,4.43
2023-01-21T03:13:42.021Z,5.65
2023-01-21T03:16:32.080Z,6.65
2023-01-21T03:19:05.749Z,7.25
2023-01-21T03:21:35.387Z,5.75
2023-01-21T03:24:03.062Z,6.90
2023-01-21T03:26:35.352Z,6.53
2023-01-21T03:29:09.514Z,6.57
2023-01-21T03:31:40.082Z,5.47
2023-01-21T03:34:10.469Z,5.35
2023-01-21T03:36:37.547Z,5.95
2023-01-21T03:39:16.052Z,6.53
2023-01-21T03:41:43.231Z,6.90
2023-01-21T03:44:10.877Z,6.72
2023-01-21T03:47:00.738Z,6.60
2023-01-21T03:49:30.945Z,5.93
2023-01-21T03:52:00.854Z,6.50
2023-01-21T03:54:28.328Z,4.53
2023-01-21T03:56:55.329Z,5.47
2023-01-21T03:59:22.928Z,5.93
2023-01-21T04:01:50.027Z,5.30
2023-01-21T04:04:17.406Z,5.32
2023-01-21T04:06:44.398Z,5.07
2023-01-21T04:09:12.006Z,6.43
2023-01-21T04:11:39.060Z,5.35
2023-01-21T04:14:06.797Z,5.80
2023-01-21T04:16:33.930Z,6.20
2023-01-21T04:19:01.321Z,6.15
2023-01-21T04:21:28.355Z,5.38
2023-01-21T04:23:55.769Z,5.40
2023-01-21T04:26:22.880Z,4.50
2023-01-21T04:28:50.253Z,3.78
2023-01-21T04:31:17.378Z,4.85
2023-01-21T04:33:44.694Z,5.40
2023-01-21T04:36:11.805Z,4.88
2023-01-21T04:38:39.079Z,5.55
2023-01-21T04:41:06.271Z,4.93
2023-01-21T04:43:33.537Z,5.22
2023-01-21T04:46:00.634Z,6.43
2023-01-21T04:48:28.112Z,6.15
2023-01-21T04:50:55.246Z,4.63
2023-01-21T04:53:22.593Z,6.13
2023-01-21T04:55:52.449Z,6.05
2023-01-21T04:58:20.931Z,4.95
2023-01-21T05:00:48.241Z,4.80
2023-01-21T05:03:15.854Z,5.53
2023-01-21T05:05:42.901Z,5.38
2023-01-21T05:08:10.222Z,6.82
2023-01-21T05:10:37.312Z,7.00
2023-01-21T05:13:04.920Z,4.93
2023-01-21T05:15:32.724Z,5.63
2023-01-21T05:18:00.689Z,7.28
2023-01-21T05:20:27.708Z,8.50
2023-01-21T05:22:55.117Z,10.70
2023-01-21T05:25:22.119Z,5.10
2023-01-21T05:27:53.791Z,5.70
2023-01-21T05:30:21.594Z,5.15
2023-01-21T05:32:53.135Z,5.88
2023-01-21T05:35:22.248Z,5.15
2023-01-21T05:37:50.745Z,5.03
2023-01-21T05:40:18.602Z,6.32
2023-01-21T05:42:46.855Z,4.70
2023-01-21T05:45:14.303Z,4.97
2023-01-21T05:47:42.015Z,5.03
2023-01-21T05:50:10.006Z,5.40
2023-01-21T05:52:37.684Z,5.13
2023-01-21T05:55:05.117Z,6.60
2023-01-21T05:57:32.861Z,5.18
2023-01-21T06:00:00.016Z,5.60
2023-01-21T06:02:27.448Z,4.97
2023-01-21T06:04:54.568Z,5.20
2023-01-21T06:07:21.951Z,4.88
2023-01-21T06:09:48.982Z,5.18
2023-01-21T06:12:16.383Z,4.13
2023-01-21T06:14:43.373Z,7.30
2023-01-21T06:17:10.698Z,5.30
2023-01-21T06:19:37.823Z,4.30
2023-01-21T06:22:05.114Z,5.13
2023-01-21T06:24:35.242Z,3.97
2023-01-21T06:27:02.848Z,5.35
2023-01-21T06:29:29.838Z,4.30
2023-01-21T06:31:57.355Z,4.53
2023-01-21T06:34:24.409Z,4.97
2023-01-21T06:36:51.767Z,3.33
2023-01-21T06:39:19.167Z,5.00
2023-01-21T06:41:46.728Z,5.03
2023-01-21T06:44:13.708Z,4.13
2023-01-21T06:46:43.426Z,4.63
2023-01-21T06:49:12.975Z,4.68
2023-01-21T06:51:40.325Z,4.60
2023-01-21T06:54:07.373Z,4.63
2023-01-21T06:56:34.762Z,4.32
2023-01-21T06:59:01.896Z,3.75
2023-01-21T07:01:32.382Z,5.15
2023-01-21T07:04:01.335Z,3.80
2023-01-21T07:06:28.670Z,3.65
2023-01-21T07:08:55.731Z,3.30
2023-01-21T07:11:23.118Z,4.43
2023-01-21T07:13:50.141Z,6.32
2023-01-21T07:16:17.554Z,7.45
2023-01-21T07:18:44.652Z,5.20
2023-01-21T07:21:12.028Z,6.65
2023-01-21T07:23:39.062Z,3.95
2023-01-21T07:26:06.563Z,4.38
2023-01-21T07:28:34.119Z,5.38
2023-01-21T07:31:02.440Z,5.55
2023-01-21T07:33:29.956Z,6.80
2023-01-21T07:35:57.256Z,8.88
2023-01-21T07:38:24.333Z,7.60
2023-01-21T07:40:51.685Z,5.47
2023-01-21T07:43:18.745Z,8.55
2023-01-21T07:45:46.230Z,9.68
2023-01-21T07:48:13.319Z,9.77
2023-01-21T07:50:40.757Z,9.88
2023-01-21T07:53:07.912Z,10.77
2023-01-21T07:55:35.371Z,9.45
2023-01-21T07:58:02.352Z,12.50
2023-01-21T08:00:29.734Z,12.32
2023-01-21T08:02:57.771Z,10.07
2023-01-21T08:05:26.268Z,12.88
2023-01-21T08:07:58.236Z,10.65
2023-01-21T08:10:26.544Z,11.73
2023-01-21T08:12:53.594Z,17.27
2023-01-21T08:15:21.346Z,16.10
2023-01-21T08:17:48.885Z,21.15
2023-01-21T08:20:16.554Z,30.80
2023-01-21T08:22:43.624Z,21.38
2023-01-21T08:25:11.717Z,49.85
2023-01-21T08:27:38.981Z,24.90
2023-01-21T08:30:07.178Z,25.42
2023-01-21T08:32:34.241Z,23.70
2023-01-21T08:35:03.079Z,19.17
2023-01-21T08:37:30.120Z,18.88
2023-01-21T08:39:57.448Z,17.08
2023-01-21T08:42:24.539Z,16.98
2023-01-21T08:44:51.839Z,16.75
2023-01-21T08:47:18.912Z,18.60
2023-01-21T08:49:46.253Z,14.02
2023-01-21T08:52:13.524Z,17.35
2023-01-21T08:54:41.463Z,20.15
2023-01-21T08:57:08.579Z,23.25
2023-01-21T08:59:35.969Z,18.15
2023-01-21T09:02:02.993Z,20.58
2023-01-21T09:04:30.460Z,21.02
2023-01-21T09:06:57.596Z,10.18
2023-01-21T09:09:24.876Z,13.52
2023-01-21T09:11:52.773Z,11.23
2023-01-21T09:14:21.518Z,8.43
2023-01-21T09:16:49.582Z,10.77
2023-01-21T09:19:17.269Z,7.68
2023-01-21T09:21:44.429Z,7.82
2023-01-21T09:24:11.804Z,7.65
2023-01-21T09:26:44.107Z,6.97
2023-01-21T09:29:11.603Z,8.10
2023-01-21T09:31:38.799Z,7.90
2023-01-21T09:34:06.549Z,9.88
2023-01-21T09:36:34.921Z,9.40
2023-01-21T09:39:02.434Z,9.38
2023-01-21T09:41:37.487Z,7.68
2023-01-21T09:44:26.665Z,7.80
2023-01-21T09:47:06.115Z,12.15
2023-01-21T09:49:46.459Z,10.55
2023-01-21T09:52:29.108Z,11.15
2023-01-21T09:54:58.133Z,15.23
2023-01-21T09:57:34.334Z,10.68
2023-01-21T10:00:16.576Z,9.93
2023-01-21T10:02:57.766Z,13.95
2023-01-21T10:05:25.124Z,10.02
2023-01-21T10:08:08.991Z,11.10
2023-01-21T10:10:57.745Z,11.52
2023-01-21T10:13:45.907Z,13.75
2023-01-21T10:16:29.657Z,12.38
2023-01-21T10:18:58.521Z,12.85
2023-01-21T10:22:02.044Z,14.45
2023-01-21T10:24:51.336Z,11.50
2023-01-21T10:27:21.256Z,13.80
2023-01-21T10:29:59.316Z,12.77
2023-01-21T10:32:28.051Z,10.00
2023-01-21T10:34:57.204Z,13.45
2023-01-21T10:37:27.296Z,12.65
2023-01-21T10:39:58.083Z,11.82
2023-01-21T10:42:37.806Z,12.68
2023-01-21T10:45:13.627Z,14.18
2023-01-21T10:48:05.319Z,15.33
2023-01-21T10:50:38.185Z,10.10
2023-01-21T10:53:14.868Z,14.07
2023-01-21T10:56:07.327Z,16.38
2023-01-21T10:58:45.414Z,17.58
2023-01-21T11:01:22.062Z,14.55
2023-01-21T11:03:53.481Z,13.05
2023-01-21T11:06:23.030Z,12.27
2023-01-21T11:08:56.042Z,12.55
2023-01-21T11:11:30.398Z,11.55
2023-01-21T11:13:57.994Z,13.48
2023-01-21T11:16:51.276Z,14.48
2023-01-21T11:19:24.867Z,11.18
2023-01-21T11:22:27.423Z,13.82
2023-01-21T11:24:55.047Z,11.55
2023-01-21T11:27:37.970Z,15.45
2023-01-21T11:30:25.889Z,15.27
2023-01-21T11:32:54.407Z,15.30
2023-01-21T11:35:23.081Z,15.25
2023-01-21T11:37:50.602Z,12.73
2023-01-21T11:40:21.451Z,15.68
2023-01-21T11:42:54.515Z,13.38
2023-01-21T11:45:31.962Z,26.13
2023-01-21T11:48:00.537Z,14.02
2023-01-21T11:50:40.661Z,17.50
2023-01-21T11:53:13.736Z,13.65
2023-01-21T11:55:54.271Z,17.00
2023-01-21T11:58:38.128Z,17.67
2023-01-21T12:01:08.691Z,18.27
2023-01-21T12:03:42.770Z,18.15
2023-01-21T12:06:17.137Z,16.05
2023-01-21T12:08:49.667Z,18.15
2023-01-21T12:11:23.148Z,14.00
2023-01-21T12:14:08.740Z,17.85
2023-01-21T12:16:55.038Z,18.02
2023-01-21T12:19:36.235Z,19.48
2023-01-21T12:22:30.929Z,17.10
2023-01-21T12:25:22.839Z,16.00
2023-01-21T12:28:34.521Z,17.40
2023-01-21T12:31:32.673Z,16.83
2023-01-21T12:34:08.991Z,15.43
2023-01-21T12:36:49.366Z,18.57
2023-01-21T12:39:33.616Z,19.63
2023-01-21T12:42:12.223Z,17.50
2023-01-21T12:44:45.965Z,15.77
2023-01-21T12:47:25.650Z,19.65
2023-01-21T12:50:17.674Z,19.60
2023-01-21T12:53:09.435Z,18.88
2023-01-21T12:55:45.392Z,21.00
2023-01-21T12:58:15.906Z,19.42
2023-01-21T13:00:47.679Z,22.13
2023-01-21T13:03:32.903Z,19.90
2023-01-21T13:06:17.278Z,18.55
2023-01-21T13:09:14.004Z,16.40
2023-01-21T13:11:58.361Z,16.73
2023-01-21T13:14:40.373Z,18.73
2023-01-21T13:17:16.358Z,19.75
2023-01-21T13:19:43.474Z,18.92
2023-01-21T13:22:43.008Z,19.88
2023-01-21T13:25:37.626Z,21.40
2023-01-21T13:28:07.858Z,12.10
2023-01-21T13:30:56.425Z,19.25
2023-01-21T13:33:42.168Z,19.15
2023-01-21T13:36:26.460Z,15.77
2023-01-21T13:39:05.410Z,20.90
2023-01-21T13:41:57.482Z,23.70
2023-01-21T13:44:40.087Z,19.45
2023-01-21T13:47:22.237Z,21.27
2023-01-21T13:50:01.656Z,22.00
2023-01-21T13:52:43.700Z,20.20
2023-01-21T13:55:32.002Z,19.73
2023-01-21T13:58:08.629Z,18.30
2023-01-21T14:03:24.840Z,23.95
2023-01-21T14:05:56.585Z,22.20
2023-01-21T14:08:43.425Z,24.17
2023-01-21T14:11:31.342Z,23.55
2023-01-21T14:14:16.641Z,22.25
2023-01-21T14:17:32.338Z,20.00
2023-01-21T14:20:28.262Z,21.42
2023-01-21T14:23:22.452Z,19.63
2023-01-21T14:26:08.612Z,20.38
2023-01-21T14:29:17.256Z,19.85
2023-01-21T14:32:04.907Z,21.20
2023-01-21T14:34:39.879Z,18.65
2023-01-21T14:37:15.791Z,25.13
2023-01-21T14:40:01.720Z,24.17
2023-01-21T14:42:49.132Z,25.25
2023-01-21T14:45:27.383Z,22.92
2023-01-21T14:47:58.378Z,20.35
2023-01-21T14:50:50.821Z,20.52
2023-01-21T14:53:26.346Z,24.45
2023-01-21T14:56:22.377Z,25.50
2023-01-21T14:58:54.423Z,23.30
2023-01-21T15:01:46.049Z,20.23
2023-01-21T15:04:29.420Z,24.98
2023-01-21T15:07:00.650Z,23.90
2023-01-21T15:09:32.687Z,24.13
2023-01-21T15:12:03.291Z,22.42
2023-01-21T15:14:39.848Z,21.45
2023-01-21T15:17:47.205Z,25.85
2023-01-21T15:20:44.049Z,27.48
2023-01-21T15:23:17.253Z,24.23
2023-01-21T15:26:09.081Z,23.10
2023-01-21T15:28:46.476Z,22.05
2023-01-21T15:31:41.220Z,30.70
2023-01-21T15:34:15.721Z,26.75
2023-01-21T15:36:50.417Z,26.02
2023-01-21T15:39:27.518Z,22.67
2023-01-21T15:42:19.213Z,23.30
2023-01-21T15:44:58.040Z,23.63
2023-01-21T15:47:41.155Z,28.63
2023-01-21T15:50:20.641Z,26.48
2023-01-21T15:53:26.695Z,24.15
2023-01-21T15:56:18.163Z,21.75
2023-01-21T15:59:05.429Z,23.73
2023-01-21T16:01:37.965Z,21.63
2023-01-21T16:04:32.703Z,23.38
2023-01-21T16:07:24.971Z,22.45
2023-01-21T16:10:16.447Z,22.85
2023-01-21T16:12:46.824Z,22.38
2023-01-21T16:15:44.354Z,23.27
2023-01-21T16:18:21.397Z,22.45
2023-01-21T16:20:53.304Z,22.52
2023-01-21T16:23:24.622Z,16.70
2023-01-21T16:25:53.000Z,21.52
2023-01-21T16:28:21.337Z,23.63
2023-01-21T16:30:54.990Z,23.33
2023-01-21T16:33:24.037Z,18.17
2023-01-21T16:35:54.493Z,22.38
2023-01-21T16:38:27.544Z,21.38
2023-01-21T16:41:06.555Z,18.75
2023-01-21T16:43:36.616Z,16.75
2023-01-21T16:46:14.764Z,19.80
2023-01-21T16:48:42.601Z,20.77
2023-01-21T16:51:23.799Z,24.38
2023-01-21T16:54:14.586Z,24.40
2023-01-21T16:56:49.237Z,22.20
2023-01-21T16:59:30.129Z,27.55
2023-01-21T17:01:59.162Z,28.27
2023-01-21T17:04:28.512Z,27.52
2023-01-21T17:06:55.746Z,24.90
2023-01-21T17:09:33.803Z,21.00
2023-01-21T17:12:08.491Z,23.92
2023-01-21T17:14:37.220Z,28.55
2023-01-21T17:17:08.325Z,21.92
2023-01-21T17:19:42.952Z,23.25
2023-01-21T17:22:19.895Z,23.42
2023-01-21T17:25:00.512Z,29.15
2023-01-21T17:27:28.130Z,32.47
2023-01-21T17:30:31.977Z,24.70
2023-01-21T17:33:01.721Z,21.35
2023-01-21T17:35:32.017Z,26.50
2023-01-21T17:38:05.728Z,26.20
2023-01-21T17:41:03.698Z,25.95
2023-01-21T17:43:32.342Z,26.58
2023-01-21T17:46:00.494Z,20.23
2023-01-21T17:48:28.229Z,28.98
2023-01-21T17:51:03.274Z,24.92
2023-01-21T17:53:31.171Z,23.77
2023-01-21T17:56:00.570Z,25.25
2023-01-21T17:58:46.067Z,27.08
2023-01-21T18:01:13.935Z,21.05
2023-01-21T18:03:41.281Z,22.73
2023-01-21T18:06:24.322Z,22.48
2023-01-21T18:08:52.813Z,27.48
2023-01-21T18:11:21.382Z,23.42
2023-01-21T18:13:48.728Z,24.92
2023-01-21T18:16:16.261Z,22.15
2023-01-21T18:18:43.515Z,27.38
2023-01-21T18:21:19.732Z,24.33
2023-01-21T18:23:48.113Z,25.33
2023-01-21T18:26:38.231Z,23.17
2023-01-21T18:29:05.433Z,27.33
2023-01-21T18:31:32.819Z,26.10
2023-01-21T18:33:59.932Z,30.70
2023-01-21T18:36:27.588Z,25.15
2023-01-21T18:38:54.655Z,28.08
2023-01-21T18:41:22.034Z,27.27
2023-01-21T18:43:49.064Z,24.05
2023-01-21T18:46:16.610Z,31.35
2023-01-21T18:48:43.864Z,31.92
2023-01-21T18:51:13.394Z,25.55
2023-01-21T18:53:40.546Z,29.88
2023-01-21T18:56:12.520Z,27.23
2023-01-21T18:58:39.609Z,27.58
2023-01-21T19:01:21.427Z,30.23
2023-01-21T19:03:52.363Z,26.45
2023-01-21T19:06:19.928Z,26.92
2023-01-21T19:08:48.723Z,27.55
2023-01-21T19:11:16.801Z,25.98
2023-01-21T19:13:43.918Z,23.38
2023-01-21T19:16:17.196Z,26.23
2023-01-21T19:18:44.820Z,26.70
2023-01-21T19:21:12.492Z,25.40
2023-01-21T19:23:40.426Z,30.80
2023-01-21T19:26:09.891Z,25.15
2023-01-21T19:28:37.357Z,27.85
2023-01-21T19:31:04.940Z,29.17
2023-01-21T19:33:32.078Z,30.83
2023-01-21T19:36:06.549Z,33.15
2023-01-21T19:38:33.575Z,33.30
2023-01-21T19:41:00.862Z,27.65
2023-01-21T19:43:28.170Z,28.75
2023-01-21T19:45:58.131Z,26.52
2023-01-21T19:48:27.502Z,30.20
2023-01-21T19:50:54.854Z,33.15
2023-01-21T19:53:23.258Z,30.13
2023-01-21T19:55:51.083Z,29.23
2023-01-21T19:58:21.117Z,35.25
2023-01-21T20:00:51.067Z,26.10
2023-01-21T20:03:19.526Z,31.40
2023-01-21T20:05:49.729Z,42.75
2023-01-21T20:08:24.262Z,44.38
2023-01-21T20:10:52.059Z,43.35
2023-01-21T20:13:19.204Z,32.72
2023-01-21T20:15:49.185Z,30.23
2023-01-21T20:18:28.080Z,37.90
2023-01-21T20:20:56.222Z,38.92
2023-01-21T20:23:25.211Z,37.40
2023-01-21T20:25:56.724Z,39.42
2023-01-21T20:28:26.623Z,28.88
2023-01-21T20:30:54.855Z,25.48
2023-01-21T20:33:23.985Z,26.88
2023-01-21T20:35:53.341Z,28.38
2023-01-21T20:38:26.619Z,24.52
2023-01-21T20:40:54.123Z,26.42
2023-01-21T20:43:21.284Z,28.63
2023-01-21T20:45:49.379Z,32.00
2023-01-21T20:48:25.192Z,38.35
2023-01-21T20:50:53.222Z,45.30
2023-01-21T20:53:20.694Z,28.75
2023-01-21T20:55:51.345Z,31.58
2023-01-21T20:58:21.899Z,29.30
2023-01-21T21:00:50.225Z,33.28
2023-01-21T21:03:18.444Z,29.15
2023-01-21T21:05:47.239Z,30.48
2023-01-21T21:08:16.272Z,43.47
2023-01-21T21:10:44.114Z,34.40
2023-01-21T21:13:12.337Z,30.52
2023-01-21T21:15:41.614Z,34.35
2023-01-21T21:18:13.917Z,37.10
2023-01-21T21:20:41.969Z,32.25
2023-01-21T21:23:14.139Z,41.80
2023-01-21T21:25:47.263Z,36.33
2023-01-21T21:28:16.993Z,42.47
2023-01-21T21:30:45.040Z,33.83
2023-01-21T21:33:20.387Z,39.72
2023-01-21T21:35:48.426Z,37.50
2023-01-21T21:38:18.152Z,36.88
2023-01-21T21:40:47.327Z,36.83
2023-01-21T21:43:38.801Z,39.15
2023-01-21T21:46:28.918Z,34.72
2023-01-21T21:48:56.113Z,34.47
2023-01-21T21:51:24.139Z,39.63
2023-01-21T21:53:51.718Z,33.47
2023-01-21T21:56:21.846Z,27.23
2023-01-21T21:58:49.906Z,33.45
2023-01-21T22:01:23.273Z,25.48
2023-01-21T22:03:51.368Z,32.97
2023-01-21T22:06:22.508Z,29.15
2023-01-21T22:08:49.685Z,23.80
2023-01-21T22:11:19.120Z,25.83
2023-01-21T22:13:50.090Z,21.77
2023-01-21T22:16:23.689Z,27.85
2023-01-21T22:18:51.552Z,30.90
2023-01-21T22:21:28.380Z,27.70
2023-01-21T22:23:55.847Z,29.90
2023-01-21T22:26:25.510Z,32.17
2023-01-21T22:28:53.191Z,44.42
2023-01-21T22:31:25.533Z,42.28
2023-01-21T22:33:53.411Z,39.28
2023-01-21T22:36:22.944Z,41.38
2023-01-21T22:38:51.261Z,44.20
2023-01-21T22:41:21.343Z,40.17
2023-01-21T22:43:49.492Z,40.20
2023-01-21T22:46:25.934Z,37.50
2023-01-21T22:48:54.553Z,35.05
2023-01-21T22:51:23.155Z,34.75
2023-01-21T22:53:51.488Z,34.63
2023-01-21T22:56:25.367Z,30.42
2023-01-21T22:58:58.820Z,32.75
2023-01-21T23:01:31.055Z,31.85
2023-01-21T23:03:59.151Z,32.30
2023-01-21T23:06:26.864Z,27.88
2023-01-21T23:08:54.079Z,32.22
2023-01-21T23:11:21.898Z,31.58
2023-01-21T23:13:49.677Z,34.28
2023-01-21T23:16:19.156Z,33.80
2023-01-21T23:18:46.804Z,33.70
2023-01-21T23:21:20.930Z,34.97
2023-01-21T23:23:48.576Z,33.38
2023-01-21T23:26:18.321Z,25.63
2023-01-21T23:28:45.706Z,29.35
2023-01-21T23:31:15.705Z,27.55
2023-01-21T23:33:43.135Z,28.38
2023-01-21T23:36:13.790Z,24.00
2023-01-21T23:38:41.707Z,25.23
2023-01-21T23:41:11.475Z,24.67
2023-01-21T23:43:38.625Z,23.40
2023-01-21T23:46:07.891Z,21.70
2023-01-21T23:48:35.065Z,20.35
2023-01-21T23:51:10.845Z,23.48
2023-01-21T23:53:38.014Z,23.38
2023-01-21T23:56:10.508Z,25.30
2023-01-21T23:58:37.528Z,24.40
